createdAt,value
2023-05-22T00:00:43.853Z,10.50
2023-05-22T00:01:34.635Z,10.50
2023-05-22T00:02:25.447Z,10.50
2023-05-22T00:03:16.243Z,10.20
2023-05-22T00:04:07.033Z,10.50
2023-05-22T00:04:57.899Z,10.30
2023-05-22T00:05:48.636Z,10.50
2023-05-22T00:06:39.420Z,10.20
2023-05-22T00:07:30.217Z,10.40
2023-05-22T00:08:21.054Z,10.40
2023-05-22T00:09:11.877Z,10.00
2023-05-22T00:10:02.652Z,10.10
2023-05-22T00:10:53.434Z,9.80
2023-05-22T00:11:44.232Z,9.90
2023-05-22T00:12:35.029Z,10.40
2023-05-22T00:13:25.849Z,9.90
2023-05-22T00:14:16.586Z,9.60
2023-05-22T00:15:07.349Z,9.80
2023-05-22T00:15:58.112Z,10.20
2023-05-22T00:16:49.180Z,10.30
2023-05-22T00:17:39.939Z,10.00
2023-05-22T00:18:30.689Z,10.20
2023-05-22T00:19:21.503Z,10.10
2023-05-22T00:20:12.235Z,9.90
2023-05-22T00:21:03.026Z,9.80
2023-05-22T00:21:53.791Z,9.90
2023-05-22T00:22:44.584Z,10.00
2023-05-22T00:23:35.392Z,10.10
2023-05-22T00:24:26.180Z,9.80
2023-05-22T00:25:16.960Z,10.10
2023-05-22T00:26:07.754Z,9.90
2023-05-22T00:26:58.534Z,10.00
2023-05-22T00:27:49.356Z,9.90
2023-05-22T00:28:40.093Z,10.10
2023-05-22T00:29:30.911Z,9.60
2023-05-22T00:30:21.660Z,9.80
2023-05-22T00:31:12.445Z,9.50
2023-05-22T00:32:03.226Z,9.60
2023-05-22T00:32:54.103Z,9.50
2023-05-22T00:33:44.865Z,9.70
2023-05-22T00:34:35.685Z,9.90
2023-05-22T00:35:26.456Z,9.60
2023-05-22T00:36:17.245Z,9.90
2023-05-22T00:37:08.031Z,9.70
2023-05-22T00:37:58.816Z,9.80
2023-05-22T00:38:49.595Z,9.90
2023-05-22T00:39:40.375Z,9.80
2023-05-22T00:40:31.162Z,10.00
2023-05-22T00:41:21.947Z,9.70
2023-05-22T00:42:12.735Z,9.60
2023-05-22T00:43:03.510Z,10.00
2023-05-22T00:43:54.310Z,9.90
2023-05-22T00:44:45.186Z,9.60
2023-05-22T00:45:35.916Z,10.00
2023-05-22T00:46:26.704Z,9.40
2023-05-22T00:47:17.463Z,10.00
2023-05-22T00:48:08.325Z,9.70
2023-05-22T00:48:59.084Z,9.90
2023-05-22T00:49:49.882Z,9.70
2023-05-22T00:50:40.948Z,9.60
2023-05-22T00:51:31.785Z,9.80
2023-05-22T00:52:22.572Z,9.20
2023-05-22T00:53:13.362Z,9.20
2023-05-22T00:54:04.159Z,9.20
2023-05-22T00:54:54.920Z,9.50
2023-05-22T00:55:45.704Z,9.10
2023-05-22T00:56:36.479Z,10.10
2023-05-22T00:57:27.279Z,9.90
2023-05-22T00:58:18.048Z,9.60
2023-05-22T00:59:08.831Z,9.10
2023-05-22T00:59:59.648Z,9.60
2023-05-22T01:00:50.420Z,9.00
2023-05-22T01:01:41.253Z,9.40
2023-05-22T01:02:32.103Z,9.60
2023-05-22T01:03:22.946Z,9.60
2023-05-22T01:04:13.792Z,9.70
2023-05-22T01:05:04.522Z,9.70
2023-05-22T01:05:55.295Z,8.80
2023-05-22T01:06:46.060Z,9.70
2023-05-22T01:07:36.833Z,9.60
2023-05-22T01:08:27.617Z,9.70
2023-05-22T01:09:18.403Z,9.70
2023-05-22T01:10:09.189Z,9.10
2023-05-22T01:10:59.978Z,9.30
2023-05-22T01:11:50.776Z,9.40
2023-05-22T01:12:41.558Z,9.30
2023-05-22T01:13:32.353Z,9.20
2023-05-22T01:14:23.142Z,9.50
2023-05-22T01:15:13.949Z,9.60
2023-05-22T01:16:04.739Z,9.70
2023-05-22T01:16:55.532Z,9.30
2023-05-22T01:17:46.401Z,9.50
2023-05-22T01:18:37.147Z,9.50
2023-05-22T01:19:28.058Z,9.30
2023-05-22T01:20:18.829Z,9.50
2023-05-22T01:21:09.604Z,9.80
2023-05-22T01:22:00.374Z,9.90
2023-05-22T01:22:51.165Z,9.50
2023-05-22T01:23:41.945Z,9.60
2023-05-22T01:24:32.737Z,10.00
2023-05-22T01:25:23.519Z,9.40
2023-05-22T01:26:14.289Z,9.20
2023-05-22T01:27:05.065Z,9.30
2023-05-22T01:27:55.866Z,9.30
2023-05-22T01:28:46.596Z,9.40
2023-05-22T01:29:37.377Z,9.10
2023-05-22T01:30:28.190Z,9.80
2023-05-22T01:31:18.895Z,9.60
2023-05-22T01:32:09.676Z,9.50
2023-05-22T01:33:00.492Z,10.10
2023-05-22T01:33:51.529Z,9.60
2023-05-22T01:34:42.329Z,9.90
2023-05-22T01:35:33.123Z,9.70
2023-05-22T01:36:23.921Z,9.60
2023-05-22T01:37:14.732Z,9.60
2023-05-22T01:38:05.503Z,9.90
2023-05-22T01:38:56.289Z,9.70
2023-05-22T01:39:47.077Z,9.90
2023-05-22T01:40:38.090Z,10.10
2023-05-22T01:41:28.976Z,10.10
2023-05-22T01:42:19.762Z,10.10
2023-05-22T01:43:10.548Z,9.50
2023-05-22T01:44:01.345Z,9.90
2023-05-22T01:44:52.100Z,9.50
2023-05-22T01:45:42.940Z,9.40
2023-05-22T01:46:33.690Z,9.50
2023-05-22T01:47:24.482Z,9.50
2023-05-22T01:48:15.247Z,9.90
2023-05-22T01:49:06.029Z,10.10
2023-05-22T01:49:56.802Z,9.20
2023-05-22T01:50:47.579Z,9.90
2023-05-22T01:51:38.357Z,9.90
2023-05-22T01:52:29.168Z,9.80
2023-05-22T01:53:19.953Z,9.90
2023-05-22T01:54:10.735Z,9.60
2023-05-22T01:55:01.521Z,10.00
2023-05-22T01:55:52.305Z,9.70
2023-05-22T01:56:43.112Z,10.40
2023-05-22T01:57:33.890Z,10.00
2023-05-22T01:58:24.651Z,10.10
2023-05-22T01:59:15.349Z,9.90
2023-05-22T02:00:06.114Z,10.10
2023-05-22T02:00:56.968Z,10.00
2023-05-22T02:01:47.873Z,10.30
2023-05-22T02:02:38.547Z,9.80
2023-05-22T02:03:29.198Z,10.10
2023-05-22T02:04:20.088Z,9.90
2023-05-22T02:05:10.940Z,10.20
2023-05-22T02:06:01.678Z,10.40
2023-05-22T02:06:52.811Z,10.40
2023-05-22T02:07:44.011Z,10.20
2023-05-22T02:08:35.038Z,10.50
2023-05-22T02:09:26.060Z,11.00
2023-05-22T02:10:17.156Z,10.30
2023-05-22T02:11:08.195Z,10.10
2023-05-22T02:11:59.219Z,11.20
2023-05-22T02:12:50.145Z,10.80
2023-05-22T02:13:41.281Z,10.50
2023-05-22T02:14:31.946Z,11.10
2023-05-22T02:15:22.726Z,10.40
2023-05-22T02:16:13.543Z,10.20
2023-05-22T02:17:04.279Z,10.50
2023-05-22T02:17:55.078Z,10.60
2023-05-22T02:18:45.855Z,10.30
2023-05-22T02:19:36.691Z,10.40
2023-05-22T02:20:27.407Z,10.80
2023-05-22T02:21:18.168Z,10.10
2023-05-22T02:22:08.937Z,10.40
2023-05-22T02:22:59.693Z,10.50
2023-05-22T02:23:50.461Z,10.70
2023-05-22T02:24:41.222Z,11.20
2023-05-22T02:25:31.980Z,10.30
2023-05-22T02:26:22.742Z,10.60
2023-05-22T02:27:13.723Z,10.40
2023-05-22T02:28:04.421Z,10.30
2023-05-22T02:28:55.214Z,10.30
2023-05-22T02:29:45.975Z,10.80
2023-05-22T02:30:37.047Z,10.60
2023-05-22T02:31:27.960Z,10.70
2023-05-22T02:32:18.711Z,10.40
2023-05-22T02:33:09.902Z,10.70
2023-05-22T02:34:00.725Z,10.90
2023-05-22T02:34:54.081Z,10.50
2023-05-22T02:35:42.553Z,10.70
2023-05-22T02:36:33.418Z,10.50
2023-05-22T02:37:24.278Z,10.70
2023-05-22T02:38:15.139Z,10.40
2023-05-22T02:39:05.996Z,10.70
2023-05-22T02:39:56.871Z,10.80
2023-05-22T02:40:47.865Z,10.80
2023-05-22T02:41:38.661Z,10.70
2023-05-22T02:42:29.461Z,11.30
2023-05-22T02:43:20.393Z,10.70
2023-05-22T02:44:11.260Z,10.40
2023-05-22T02:45:02.128Z,10.60
2023-05-22T02:45:52.975Z,10.80
2023-05-22T02:46:43.928Z,10.60
2023-05-22T02:47:34.782Z,10.60
2023-05-22T02:48:25.628Z,10.60
2023-05-22T02:49:16.818Z,10.60
2023-05-22T02:50:07.501Z,10.80
2023-05-22T02:50:58.359Z,10.60
2023-05-22T02:51:49.222Z,11.10
2023-05-22T02:52:40.129Z,10.40
2023-05-22T02:53:30.999Z,10.60
2023-05-22T02:54:21.865Z,10.30
2023-05-22T02:55:12.720Z,10.30
2023-05-22T02:56:03.592Z,10.00
2023-05-22T02:56:54.475Z,9.80
2023-05-22T02:57:45.333Z,10.40
2023-05-22T02:58:36.198Z,10.40
2023-05-22T02:59:27.166Z,10.20
2023-05-22T03:00:18.053Z,10.10
2023-05-22T03:01:08.964Z,10.30
2023-05-22T03:01:59.944Z,10.20
2023-05-22T03:02:50.858Z,10.70
2023-05-22T03:03:41.892Z,10.10
2023-05-22T03:04:32.798Z,9.60
2023-05-22T03:05:23.685Z,10.10
2023-05-22T03:06:14.564Z,10.00
2023-05-22T03:07:05.451Z,10.10
2023-05-22T03:07:56.382Z,10.10
2023-05-22T03:08:47.262Z,10.00
2023-05-22T03:09:38.143Z,10.60
2023-05-22T03:10:29.028Z,10.50
2023-05-22T03:11:19.902Z,10.20
2023-05-22T03:12:10.776Z,10.70
2023-05-22T03:13:01.683Z,10.10
2023-05-22T03:13:52.554Z,10.30
2023-05-22T03:14:43.437Z,9.90
2023-05-22T03:15:34.312Z,10.40
2023-05-22T03:16:25.227Z,9.90
2023-05-22T03:17:16.123Z,9.60
2023-05-22T03:18:06.980Z,9.60
2023-05-22T03:18:57.872Z,10.00
2023-05-22T03:19:48.758Z,10.20
2023-05-22T03:20:39.904Z,9.90
2023-05-22T03:21:30.291Z,9.80
2023-05-22T03:22:21.175Z,9.90
2023-05-22T03:23:12.043Z,9.90
2023-05-22T03:24:02.930Z,9.90
2023-05-22T03:24:53.821Z,10.10
2023-05-22T03:25:44.704Z,9.70
2023-05-22T03:26:35.581Z,10.10
2023-05-22T03:27:26.482Z,10.40
2023-05-22T03:28:17.370Z,9.50
2023-05-22T03:29:08.388Z,9.80
2023-05-22T03:29:59.274Z,10.10
2023-05-22T03:30:50.174Z,9.80
2023-05-22T03:31:41.040Z,10.00
2023-05-22T03:32:31.957Z,9.70
2023-05-22T03:33:22.827Z,10.00
2023-05-22T03:34:13.695Z,9.60
2023-05-22T03:35:04.584Z,9.60
2023-05-22T03:35:55.441Z,10.40
2023-05-22T03:36:46.338Z,9.30
2023-05-22T03:37:37.210Z,9.50
2023-05-22T03:38:28.069Z,9.90
2023-05-22T03:39:18.948Z,9.90
2023-05-22T03:40:09.817Z,10.30
2023-05-22T03:41:00.697Z,9.80
2023-05-22T03:41:51.576Z,9.60
2023-05-22T03:42:42.462Z,9.60
2023-05-22T03:43:33.361Z,9.50
2023-05-22T03:44:24.254Z,9.90
2023-05-22T03:45:15.142Z,9.00
2023-05-22T03:46:06.078Z,9.80
2023-05-22T03:46:56.963Z,9.30
2023-05-22T03:47:47.929Z,9.80
2023-05-22T03:48:38.774Z,9.50
2023-05-22T03:49:29.668Z,9.80
2023-05-22T03:50:20.569Z,9.40
2023-05-22T03:51:11.464Z,9.50
2023-05-22T03:52:02.355Z,10.20
2023-05-22T03:52:53.257Z,9.50
2023-05-22T03:53:44.169Z,9.40
2023-05-22T03:54:35.078Z,9.80
2023-05-22T03:55:25.996Z,9.00
2023-05-22T03:56:16.909Z,9.70
2023-05-22T03:57:07.537Z,8.90
2023-05-22T03:57:58.450Z,9.20
2023-05-22T03:58:49.351Z,9.40
2023-05-22T03:59:40.258Z,8.90
2023-05-22T04:00:31.184Z,9.40
2023-05-22T04:01:22.092Z,9.40
2023-05-22T04:02:13.159Z,9.20
2023-05-22T04:03:04.244Z,9.30
2023-05-22T04:03:55.187Z,9.10
2023-05-22T04:04:46.153Z,9.00
2023-05-22T04:05:37.107Z,9.60
2023-05-22T04:06:28.006Z,9.30
2023-05-22T04:07:18.925Z,9.40
2023-05-22T04:08:09.832Z,9.10
2023-05-22T04:09:00.756Z,9.00
2023-05-22T04:09:51.664Z,9.90
2023-05-22T04:10:42.592Z,9.40
2023-05-22T04:11:33.489Z,9.10
2023-05-22T04:12:24.401Z,9.00
2023-05-22T04:13:15.293Z,9.00
2023-05-22T04:14:06.193Z,9.30
2023-05-22T04:14:57.107Z,9.10
2023-05-22T04:15:48.034Z,8.90
2023-05-22T04:16:38.906Z,9.20
2023-05-22T04:17:29.827Z,9.40
2023-05-22T04:18:20.762Z,8.90
2023-05-22T04:19:11.686Z,8.80
2023-05-22T04:20:02.589Z,9.30
2023-05-22T04:20:53.483Z,9.30
2023-05-22T04:21:44.379Z,9.30
2023-05-22T04:22:35.289Z,9.70
2023-05-22T04:23:26.225Z,8.60
2023-05-22T04:24:17.150Z,9.10
2023-05-22T04:25:08.064Z,9.00
2023-05-22T04:25:58.948Z,9.40
2023-05-22T04:26:49.859Z,10.80
2023-05-22T04:27:40.781Z,11.20
2023-05-22T04:28:31.684Z,9.30
2023-05-22T04:29:22.597Z,9.10
2023-05-22T04:30:13.499Z,8.40
2023-05-22T04:31:04.451Z,9.00
2023-05-22T04:31:55.310Z,9.30
2023-05-22T04:32:46.224Z,8.70
2023-05-22T04:33:37.163Z,8.90
2023-05-22T04:34:28.036Z,9.20
2023-05-22T04:35:18.948Z,9.20
2023-05-22T04:36:12.214Z,9.30
2023-05-22T04:37:00.924Z,8.80
2023-05-22T04:37:51.839Z,8.80
2023-05-22T04:38:42.757Z,8.40
2023-05-22T04:39:33.666Z,8.80
2023-05-22T04:40:24.582Z,9.20
2023-05-22T04:41:15.482Z,8.80
2023-05-22T04:42:06.390Z,8.80
2023-05-22T04:42:57.291Z,8.30
2023-05-22T04:43:48.212Z,8.80
2023-05-22T04:44:39.127Z,8.90
2023-05-22T04:45:30.030Z,8.80
2023-05-22T04:46:20.999Z,8.00
2023-05-22T04:47:11.916Z,8.70
2023-05-22T04:48:02.984Z,8.60
2023-05-22T04:48:53.993Z,8.80
2023-05-22T04:49:44.840Z,8.40
2023-05-22T04:50:35.735Z,8.40
2023-05-22T04:51:26.652Z,8.20
2023-05-22T04:52:17.548Z,8.70
2023-05-22T04:53:08.475Z,8.40
2023-05-22T04:53:59.371Z,8.50
2023-05-22T04:54:50.266Z,8.50
2023-05-22T04:55:41.183Z,8.30
2023-05-22T04:56:36.897Z,7.80
2023-05-22T04:57:24.005Z,7.80
2023-05-22T04:58:13.687Z,8.00
2023-05-22T04:59:04.639Z,8.10
2023-05-22T04:59:55.558Z,7.70
2023-05-22T05:00:46.502Z,8.30
2023-05-22T05:01:37.457Z,8.30
2023-05-22T05:02:28.440Z,8.10
2023-05-22T05:03:19.387Z,8.60
2023-05-22T05:04:10.356Z,8.40
2023-05-22T05:05:01.248Z,8.10
2023-05-22T05:05:52.183Z,7.90
2023-05-22T05:06:43.121Z,7.70
2023-05-22T05:07:34.020Z,8.00
2023-05-22T05:08:24.903Z,7.70
2023-05-22T05:09:15.832Z,8.40
2023-05-22T05:10:06.791Z,8.30
2023-05-22T05:10:57.648Z,8.40
2023-05-22T05:11:48.568Z,8.30
2023-05-22T05:12:39.476Z,7.80
2023-05-22T05:13:30.374Z,8.00
2023-05-22T05:14:21.303Z,7.80
2023-05-22T05:15:12.190Z,7.70
2023-05-22T05:16:03.134Z,7.80
2023-05-22T05:16:54.066Z,7.60
2023-05-22T05:17:44.969Z,7.90
2023-05-22T05:18:35.863Z,8.50
2023-05-22T05:19:26.948Z,8.10
2023-05-22T05:20:17.852Z,7.80
2023-05-22T05:21:08.743Z,7.90
2023-05-22T05:21:59.649Z,7.60
2023-05-22T05:22:50.559Z,7.60
2023-05-22T05:23:41.489Z,7.60
2023-05-22T05:24:32.386Z,7.50
2023-05-22T05:25:23.311Z,7.70
2023-05-22T05:26:14.217Z,7.60
2023-05-22T05:27:05.139Z,7.80
2023-05-22T05:27:56.051Z,7.10
2023-05-22T05:28:46.960Z,7.50
2023-05-22T05:29:37.866Z,7.80
2023-05-22T05:30:28.766Z,7.80
2023-05-22T05:31:19.677Z,7.30
2023-05-22T05:32:10.681Z,7.10
2023-05-22T05:33:01.712Z,7.30
2023-05-22T05:33:52.571Z,7.50
2023-05-22T05:34:43.533Z,7.30
2023-05-22T05:35:34.412Z,7.30
2023-05-22T05:36:25.348Z,7.00
2023-05-22T05:37:16.253Z,7.40
2023-05-22T05:38:07.189Z,7.10
2023-05-22T05:38:58.073Z,7.20
2023-05-22T05:39:48.989Z,7.10
2023-05-22T05:40:40.135Z,7.70
2023-05-22T05:41:30.608Z,7.00
2023-05-22T05:42:21.518Z,7.10
2023-05-22T05:43:12.420Z,6.80
2023-05-22T05:44:03.354Z,7.00
2023-05-22T05:44:54.237Z,7.00
2023-05-22T05:45:45.201Z,7.30
2023-05-22T05:46:36.248Z,6.80
2023-05-22T05:47:27.196Z,6.70
2023-05-22T05:48:18.080Z,7.20
2023-05-22T05:49:08.993Z,7.00
2023-05-22T05:49:59.911Z,6.80
2023-05-22T05:50:50.791Z,6.50
2023-05-22T05:51:41.695Z,6.50
2023-05-22T05:52:32.706Z,6.10
2023-05-22T05:53:23.604Z,6.40
2023-05-22T05:54:14.534Z,6.40
2023-05-22T05:55:05.448Z,6.40
2023-05-22T05:55:56.362Z,6.20
2023-05-22T05:56:47.276Z,6.70
2023-05-22T05:57:38.183Z,6.20
2023-05-22T05:58:29.097Z,6.20
2023-05-22T05:59:20.025Z,6.20
2023-05-22T06:00:10.931Z,6.60
2023-05-22T06:01:01.858Z,6.10
2023-05-22T06:01:52.754Z,6.00
2023-05-22T06:02:43.804Z,6.00
2023-05-22T06:03:34.818Z,6.20
2023-05-22T06:04:25.765Z,6.00
2023-05-22T06:05:16.686Z,6.00
2023-05-22T06:06:07.548Z,5.70
2023-05-22T06:06:58.445Z,6.40
2023-05-22T06:07:49.354Z,6.10
2023-05-22T06:08:40.279Z,6.00
2023-05-22T06:09:31.164Z,5.90
2023-05-22T06:10:22.064Z,6.00
2023-05-22T06:11:12.970Z,6.10
2023-05-22T06:12:03.895Z,5.90
2023-05-22T06:12:54.804Z,5.90
2023-05-22T06:13:45.789Z,6.10
2023-05-22T06:14:36.663Z,5.30
2023-05-22T06:15:27.580Z,5.70
2023-05-22T06:16:18.618Z,5.40
2023-05-22T06:17:09.460Z,5.40
2023-05-22T06:18:00.397Z,5.80
2023-05-22T06:18:51.321Z,5.80
2023-05-22T06:19:42.216Z,5.40
2023-05-22T06:20:33.135Z,5.40
2023-05-22T06:21:24.012Z,5.70
2023-05-22T06:22:14.913Z,5.60
2023-05-22T06:23:05.826Z,5.40
2023-05-22T06:23:56.733Z,5.10
2023-05-22T06:24:47.657Z,5.10
2023-05-22T06:25:38.564Z,5.50
2023-05-22T06:26:29.440Z,5.10
2023-05-22T06:27:20.339Z,5.20
2023-05-22T06:28:11.253Z,5.10
2023-05-22T06:29:02.171Z,5.20
2023-05-22T06:29:53.072Z,5.10
2023-05-22T06:30:44.026Z,5.30
2023-05-22T06:31:34.926Z,5.30
2023-05-22T06:32:25.920Z,5.40
2023-05-22T06:33:16.894Z,5.10
2023-05-22T06:34:07.932Z,4.90
2023-05-22T06:34:58.935Z,5.20
2023-05-22T06:35:49.895Z,5.20
2023-05-22T06:36:40.723Z,4.80
2023-05-22T06:37:31.625Z,5.00
2023-05-22T06:38:22.541Z,5.10
2023-05-22T06:39:13.525Z,4.80
2023-05-22T06:40:04.389Z,4.80
2023-05-22T06:40:55.305Z,5.20
2023-05-22T06:41:46.230Z,4.90
2023-05-22T06:42:37.141Z,4.80
2023-05-22T06:43:28.033Z,5.00
2023-05-22T06:44:18.975Z,5.30
2023-05-22T06:45:09.834Z,4.70
2023-05-22T06:46:00.760Z,4.50
2023-05-22T06:46:51.650Z,4.90
2023-05-22T06:47:42.603Z,4.50
2023-05-22T06:48:33.452Z,4.80
2023-05-22T06:49:24.383Z,4.60
2023-05-22T06:50:15.297Z,4.90
2023-05-22T06:51:06.231Z,4.40
2023-05-22T06:51:57.128Z,4.80
2023-05-22T06:52:48.018Z,4.70
2023-05-22T06:53:38.929Z,4.60
2023-05-22T06:54:29.841Z,4.60
2023-05-22T06:55:20.737Z,4.90
2023-05-22T06:56:11.654Z,4.80
2023-05-22T06:57:02.559Z,4.60
2023-05-22T06:57:53.476Z,4.80
2023-05-22T06:58:44.362Z,4.70
2023-05-22T06:59:35.266Z,4.70
2023-05-22T07:00:26.172Z,4.80
2023-05-22T07:01:17.097Z,4.90
2023-05-22T07:02:07.991Z,4.80
2023-05-22T07:02:58.924Z,4.50
2023-05-22T07:03:49.817Z,4.30
2023-05-22T07:04:40.724Z,4.40
2023-05-22T07:05:31.717Z,4.30
2023-05-22T07:06:22.607Z,4.30
2023-05-22T07:07:13.519Z,4.10
2023-05-22T07:08:04.419Z,4.50
2023-05-22T07:08:55.352Z,4.60
2023-05-22T07:09:46.280Z,4.60
2023-05-22T07:10:37.504Z,4.30
2023-05-22T07:11:27.968Z,4.30
2023-05-22T07:12:18.865Z,4.60
2023-05-22T07:13:10.586Z,4.70
2023-05-22T07:14:00.864Z,4.30
2023-05-22T07:14:51.749Z,4.40
2023-05-22T07:15:44.006Z,4.50
2023-05-22T07:16:33.608Z,4.40
2023-05-22T07:17:24.569Z,4.10
2023-05-22T07:18:15.441Z,4.60
2023-05-22T07:19:06.384Z,4.50
2023-05-22T07:19:57.263Z,4.30
2023-05-22T07:20:48.169Z,4.30
2023-05-22T07:21:39.124Z,4.40
2023-05-22T07:22:30.014Z,4.40
2023-05-22T07:23:20.937Z,4.60
2023-05-22T07:24:11.845Z,4.00
2023-05-22T07:25:02.748Z,4.20
2023-05-22T07:25:53.664Z,4.10
2023-05-22T07:26:44.588Z,4.10
2023-05-22T07:27:35.529Z,4.20
2023-05-22T07:28:26.442Z,4.20
2023-05-22T07:29:17.367Z,4.50
2023-05-22T07:30:08.300Z,4.20
2023-05-22T07:30:59.213Z,4.50
2023-05-22T07:31:50.238Z,4.20
2023-05-22T07:32:41.239Z,4.10
2023-05-22T07:33:32.201Z,4.00
2023-05-22T07:34:23.122Z,4.00
2023-05-22T07:35:14.058Z,3.80
2023-05-22T07:36:04.972Z,4.20
2023-05-22T07:36:56.023Z,3.90
2023-05-22T07:37:46.868Z,4.10
2023-05-22T07:38:37.792Z,3.80
2023-05-22T07:39:28.726Z,3.80
2023-05-22T07:40:19.656Z,4.00
2023-05-22T07:41:10.583Z,4.20
2023-05-22T07:42:01.837Z,3.80
2023-05-22T07:42:52.418Z,3.70
2023-05-22T07:43:43.333Z,3.90
2023-05-22T07:44:34.267Z,4.10
2023-05-22T07:45:25.190Z,3.70
2023-05-22T07:46:16.171Z,3.80
2023-05-22T07:47:07.122Z,4.10
2023-05-22T07:47:58.071Z,3.80
2023-05-22T07:48:48.997Z,3.70
2023-05-22T07:49:39.897Z,3.70
2023-05-22T07:50:30.911Z,3.90
2023-05-22T07:51:21.821Z,4.00
2023-05-22T07:52:13.035Z,3.90
2023-05-22T07:53:03.881Z,3.60
2023-05-22T07:53:54.806Z,3.70
2023-05-22T07:54:45.936Z,3.80
2023-05-22T07:55:36.968Z,3.70
2023-05-22T07:56:27.893Z,3.60
2023-05-22T07:57:18.828Z,3.80
2023-05-22T07:58:09.744Z,3.90
2023-05-22T07:59:00.665Z,3.80
2023-05-22T07:59:51.558Z,3.70
2023-05-22T08:00:42.488Z,3.80
2023-05-22T08:01:33.387Z,3.60
2023-05-22T08:02:24.416Z,3.70
2023-05-22T08:03:15.442Z,3.80
2023-05-22T08:04:06.437Z,3.90
2023-05-22T08:04:57.032Z,3.80
2023-05-22T08:05:48.172Z,3.90
2023-05-22T08:06:38.644Z,3.80
2023-05-22T08:07:29.698Z,3.50
2023-05-22T08:08:20.646Z,3.70
2023-05-22T08:09:11.584Z,3.70
2023-05-22T08:10:02.539Z,3.70
2023-05-22T08:11:04.151Z,3.50
2023-05-22T08:11:45.382Z,3.40
2023-05-22T08:12:35.084Z,3.50
2023-05-22T08:13:26.001Z,3.10
2023-05-22T08:14:16.936Z,3.70
2023-05-22T08:15:07.861Z,3.50
2023-05-22T08:16:00.128Z,3.60
2023-05-22T08:16:49.705Z,3.50
2023-05-22T08:17:40.645Z,3.60
2023-05-22T08:18:31.603Z,3.40
2023-05-22T08:19:22.670Z,3.40
2023-05-22T08:20:13.735Z,3.30
2023-05-22T08:21:04.651Z,3.50
2023-05-22T08:21:55.557Z,3.20
2023-05-22T08:22:46.711Z,3.40
2023-05-22T08:23:37.571Z,3.30
2023-05-22T08:24:28.525Z,3.50
2023-05-22T08:25:19.438Z,3.30
2023-05-22T08:26:10.353Z,3.30
2023-05-22T08:27:01.266Z,3.30
2023-05-22T08:27:52.185Z,3.40
2023-05-22T08:28:43.101Z,3.40
2023-05-22T08:29:34.032Z,3.20
2023-05-22T08:30:25.012Z,3.40
2023-05-22T08:31:15.932Z,3.00
2023-05-22T08:32:06.909Z,3.30
2023-05-22T08:32:57.893Z,3.30
2023-05-22T08:33:48.773Z,3.30
2023-05-22T08:34:39.693Z,3.40
2023-05-22T08:35:30.660Z,3.10
2023-05-22T08:36:21.550Z,3.60
2023-05-22T08:37:12.474Z,3.50
2023-05-22T08:38:03.431Z,2.90
2023-05-22T08:38:54.315Z,3.10
2023-05-22T08:39:45.233Z,3.30
2023-05-22T08:40:36.158Z,3.30
2023-05-22T08:41:27.251Z,3.10
2023-05-22T08:42:18.155Z,3.30
2023-05-22T08:43:09.084Z,3.10
2023-05-22T08:44:00.026Z,3.10
2023-05-22T08:44:50.952Z,3.30
2023-05-22T08:45:41.859Z,3.30
2023-05-22T08:46:32.810Z,3.30
2023-05-22T08:47:23.715Z,3.10
2023-05-22T08:48:14.642Z,3.20
2023-05-22T08:49:05.564Z,3.30
2023-05-22T08:49:56.486Z,3.20
2023-05-22T08:50:47.398Z,3.10
2023-05-22T08:51:38.324Z,3.10
2023-05-22T08:52:29.246Z,3.30
2023-05-22T08:53:20.235Z,3.10
2023-05-22T08:54:11.097Z,3.10
2023-05-22T08:55:02.028Z,3.20
2023-05-22T08:55:52.937Z,2.90
2023-05-22T08:56:55.710Z,3.20
2023-05-22T08:57:35.789Z,3.10
2023-05-22T08:58:25.530Z,3.50
2023-05-22T08:59:16.487Z,3.20
2023-05-22T09:00:07.422Z,3.20
2023-05-22T09:00:58.373Z,3.00
2023-05-22T09:01:49.289Z,3.20
2023-05-22T09:02:40.355Z,3.20
2023-05-22T09:03:31.241Z,3.40
2023-05-22T09:04:22.317Z,3.30
2023-05-22T09:05:13.237Z,3.10
2023-05-22T09:06:04.155Z,3.30
2023-05-22T09:06:55.080Z,3.20
2023-05-22T09:07:45.996Z,3.20
2023-05-22T09:08:36.957Z,3.00
2023-05-22T09:09:27.853Z,3.00
2023-05-22T09:10:18.766Z,3.30
2023-05-22T09:11:09.688Z,3.00
2023-05-22T09:12:00.618Z,3.10
2023-05-22T09:12:51.535Z,3.10
2023-05-22T09:13:42.460Z,2.90
2023-05-22T09:14:33.414Z,3.20
2023-05-22T09:15:24.332Z,3.30
2023-05-22T09:16:15.287Z,2.70
2023-05-22T09:17:06.321Z,3.10
2023-05-22T09:17:57.362Z,3.00
2023-05-22T09:18:48.278Z,3.20
2023-05-22T09:19:39.278Z,3.00
2023-05-22T09:20:30.212Z,3.00
2023-05-22T09:21:29.452Z,3.10
2023-05-22T09:22:13.077Z,2.90
2023-05-22T09:23:02.796Z,3.00
2023-05-22T09:23:53.820Z,3.40
2023-05-22T09:24:44.816Z,3.10
2023-05-22T09:25:35.737Z,3.10
2023-05-22T09:26:26.666Z,3.20
2023-05-22T09:27:17.618Z,2.90
2023-05-22T09:28:08.569Z,3.00
2023-05-22T09:28:59.519Z,3.00
2023-05-22T09:29:50.487Z,2.80
2023-05-22T09:30:41.707Z,2.90
2023-05-22T09:31:32.203Z,2.90
2023-05-22T09:32:23.177Z,3.10
2023-05-22T09:33:14.089Z,3.00
2023-05-22T09:34:05.018Z,2.80
2023-05-22T09:34:55.974Z,3.10
2023-05-22T09:35:46.903Z,3.00
2023-05-22T09:36:37.854Z,2.90
2023-05-22T09:37:28.803Z,3.00
2023-05-22T09:38:19.711Z,3.00
2023-05-22T09:39:10.749Z,2.80
2023-05-22T09:40:01.643Z,2.70
2023-05-22T09:40:52.559Z,2.80
2023-05-22T09:41:43.494Z,2.90
2023-05-22T09:42:34.426Z,2.80
2023-05-22T09:43:25.354Z,2.80
2023-05-22T09:44:16.460Z,2.70
2023-05-22T09:45:07.480Z,2.80
2023-05-22T09:45:58.433Z,2.50
2023-05-22T09:46:49.503Z,3.00
2023-05-22T09:47:40.472Z,2.80
2023-05-22T09:48:31.379Z,2.80
2023-05-22T09:49:22.316Z,2.70
2023-05-22T09:50:13.265Z,2.80
2023-05-22T09:51:04.199Z,2.90
2023-05-22T09:51:55.121Z,2.80
2023-05-22T09:52:46.077Z,3.00
2023-05-22T09:53:37.025Z,2.60
2023-05-22T09:54:27.984Z,2.90
2023-05-22T09:55:18.894Z,3.00
2023-05-22T09:56:09.838Z,2.90
2023-05-22T09:57:00.781Z,2.90
2023-05-22T09:57:51.725Z,3.10
2023-05-22T09:58:42.646Z,3.00
2023-05-22T09:59:33.592Z,2.80
2023-05-22T10:00:24.523Z,2.70
2023-05-22T10:01:15.466Z,2.60
2023-05-22T10:02:06.437Z,3.10
2023-05-22T10:02:57.383Z,3.00
2023-05-22T10:03:49.573Z,2.80
2023-05-22T10:04:39.315Z,2.90
2023-05-22T10:05:30.410Z,3.00
2023-05-22T10:06:21.284Z,2.80
2023-05-22T10:07:12.218Z,2.90
2023-05-22T10:08:03.161Z,3.00
2023-05-22T10:08:54.081Z,2.70
2023-05-22T10:09:45.027Z,3.00
2023-05-22T10:10:35.942Z,3.10
2023-05-22T10:11:26.874Z,2.60
2023-05-22T10:12:17.808Z,3.10
2023-05-22T10:13:08.742Z,2.80
2023-05-22T10:13:59.670Z,3.00
2023-05-22T10:14:50.623Z,2.80
2023-05-22T10:15:41.555Z,2.80
2023-05-22T10:16:32.577Z,2.90
2023-05-22T10:17:23.479Z,2.90
2023-05-22T10:18:14.397Z,2.90
2023-05-22T10:19:05.385Z,3.00
2023-05-22T10:19:56.295Z,2.80
2023-05-22T10:20:47.299Z,2.90
2023-05-22T10:21:38.168Z,2.90
2023-05-22T10:22:29.104Z,2.70
2023-05-22T10:23:20.039Z,2.90
2023-05-22T10:24:10.987Z,2.90
2023-05-22T10:25:02.029Z,2.80
2023-05-22T10:25:52.900Z,2.90
2023-05-22T10:26:43.828Z,2.70
2023-05-22T10:27:34.752Z,2.80
2023-05-22T10:28:25.689Z,2.70
2023-05-22T10:29:16.622Z,2.80
2023-05-22T10:30:07.571Z,2.70
2023-05-22T10:30:58.517Z,2.80
2023-05-22T10:31:49.455Z,2.90
2023-05-22T10:32:40.417Z,2.60
2023-05-22T10:33:31.382Z,2.90
2023-05-22T10:34:22.282Z,2.80
2023-05-22T10:35:13.225Z,2.60
2023-05-22T10:36:04.179Z,2.90
2023-05-22T10:37:00.390Z,2.70
2023-05-22T10:37:47.024Z,2.80
2023-05-22T10:38:36.750Z,2.80
2023-05-22T10:39:27.689Z,2.90
2023-05-22T10:40:18.755Z,2.90
2023-05-22T10:41:09.631Z,3.00
2023-05-22T10:42:00.565Z,2.90
2023-05-22T10:42:51.493Z,3.10
2023-05-22T10:43:42.425Z,2.80
2023-05-22T10:44:33.360Z,2.90
2023-05-22T10:45:24.311Z,2.80
2023-05-22T10:46:15.275Z,3.10
2023-05-22T10:47:06.232Z,2.90
2023-05-22T10:47:57.193Z,3.00
2023-05-22T10:48:48.116Z,3.00
2023-05-22T10:49:39.046Z,2.70
2023-05-22T10:50:29.998Z,2.80
2023-05-22T10:51:21.055Z,3.00
2023-05-22T10:52:11.976Z,2.80
2023-05-22T10:53:02.927Z,3.00
2023-05-22T10:53:53.821Z,2.70
2023-05-22T10:54:44.770Z,2.90
2023-05-22T10:55:35.843Z,3.00
2023-05-22T10:56:26.695Z,3.10
2023-05-22T10:57:17.619Z,3.20
2023-05-22T10:58:08.573Z,3.20
2023-05-22T10:58:59.499Z,2.90
2023-05-22T10:59:50.433Z,3.00
2023-05-22T11:00:41.569Z,2.80
2023-05-22T11:01:32.036Z,2.70
2023-05-22T11:02:23.051Z,2.80
2023-05-22T11:03:18.182Z,3.10
2023-05-22T11:04:05.261Z,3.10
2023-05-22T11:04:56.234Z,2.90
2023-05-22T11:05:47.149Z,2.90
2023-05-22T11:06:38.083Z,3.00
2023-05-22T11:07:29.013Z,3.00
2023-05-22T11:08:19.946Z,2.90
2023-05-22T11:09:10.891Z,3.00
2023-05-22T11:10:01.829Z,3.00
2023-05-22T11:10:52.879Z,3.00
2023-05-22T11:11:43.791Z,3.20
2023-05-22T11:12:34.756Z,2.90
2023-05-22T11:13:26.444Z,3.30